createdAt,value
2019-03-01T00:01:40.243Z,25.50
2019-03-01T00:04:16.462Z,20.00
2019-03-01T00:07:38.484Z,23.50
2019-03-01T00:10:30.242Z,22.75
2019-03-01T00:13:24.633Z,22.75
2019-03-01T00:16:19.272Z,23.50
2019-03-01T00:19:34.244Z,20.75
2019-03-01T00:22:31.297Z,21.75
2019-03-01T00:25:17.058Z,23.75
2019-03-01T00:28:07.277Z,21.75
2019-03-01T00:30:47.992Z,19.25
2019-03-01T00:33:35.850Z,22.75
2019-03-01T00:36:49.713Z,21.25
2019-03-01T00:39:47.738Z,20.75
2019-03-01T00:43:04.589Z,23.25
2019-03-01T00:45:33.699Z,24.75
2019-03-01T00:48:02.648Z,26.50
2019-03-01T00:50:31.874Z,23.25
2019-03-01T00:53:00.980Z,23.75
2019-03-01T00:55:30.169Z,22.00
2019-03-01T00:57:59.251Z,25.50
2019-03-01T01:00:33.461Z,25.50
2019-03-01T01:03:02.857Z,26.00
2019-03-01T01:05:32.065Z,24.50
2019-03-01T01:08:01.211Z,21.00
2019-03-01T01:10:30.530Z,27.00
2019-03-01T01:13:01.582Z,21.75
2019-03-01T01:15:30.959Z,29.00
2019-03-01T01:17:59.991Z,22.75
2019-03-01T01:20:29.120Z,26.25
2019-03-01T01:22:58.383Z,30.50
2019-03-01T01:25:27.518Z,31.00
2019-03-01T01:28:05.302Z,34.00
2019-03-01T01:31:25.055Z,37.50
2019-03-01T01:33:54.588Z,38.75
2019-03-01T01:36:23.674Z,41.00
2019-03-01T01:38:52.938Z,41.50
2019-03-01T01:41:22.307Z,40.75
2019-03-01T01:43:51.530Z,46.75
2019-03-01T01:46:20.669Z,43.25
2019-03-01T01:48:50.081Z,45.75
2019-03-01T01:51:19.240Z,40.25
2019-03-01T01:53:49.967Z,49.25
2019-03-01T01:56:18.962Z,46.75
2019-03-01T01:58:48.037Z,49.25
2019-03-01T02:01:17.333Z,48.25
2019-03-01T02:03:48.095Z,49.75
2019-03-01T02:06:17.401Z,50.25
2019-03-01T02:08:46.636Z,53.25
2019-03-01T02:11:15.837Z,51.75
2019-03-01T02:13:44.986Z,55.75
2019-03-01T02:16:14.128Z,55.75
2019-03-01T02:18:43.393Z,59.75
2019-03-01T02:21:12.659Z,56.25
2019-03-01T02:23:41.756Z,54.25
2019-03-01T02:26:10.919Z,56.75
2019-03-01T02:28:41.242Z,60.50
2019-03-01T02:31:10.511Z,62.50
2019-03-01T02:33:39.685Z,64.00
2019-03-01T02:36:08.751Z,59.75
2019-03-01T02:38:37.999Z,62.75
2019-03-01T02:41:07.189Z,61.00
2019-03-01T02:43:36.611Z,63.25
2019-03-01T02:46:05.929Z,63.00
2019-03-01T02:48:38.229Z,60.50
2019-03-01T02:51:26.238Z,65.00
2019-03-01T02:56:47.177Z,63.25
2019-03-01T02:59:20.903Z,62.75
2019-03-01T03:01:50.147Z,64.75
2019-03-01T03:04:19.941Z,64.25
2019-03-01T03:07:03.387Z,64.25
2019-03-01T03:09:32.664Z,61.50
2019-03-01T03:12:33.742Z,65.00
2019-03-01T03:15:03.010Z,57.25
2019-03-01T03:17:32.033Z,60.75
2019-03-01T03:20:01.084Z,56.75
2019-03-01T03:22:32.677Z,59.75
2019-03-01T03:25:01.876Z,55.75
2019-03-01T03:27:33.241Z,53.25
2019-03-01T03:30:02.330Z,54.25
2019-03-01T03:32:31.464Z,51.75
2019-03-01T03:35:01.170Z,47.75
2019-03-01T03:37:30.549Z,47.75
2019-03-01T03:39:59.649Z,46.75
2019-03-01T03:42:35.924Z,48.75
2019-03-01T03:45:50.354Z,46.75
2019-03-01T03:48:24.920Z,40.00
2019-03-01T03:54:44.318Z,41.50
2019-03-01T03:57:22.633Z,42.00
2019-03-01T03:59:51.799Z,44.00
2019-03-01T04:02:30.234Z,40.50
2019-03-01T04:05:04.950Z,43.50
2019-03-01T04:07:34.093Z,41.00
2019-03-01T04:10:03.129Z,41.00
2019-03-01T04:12:36.341Z,45.75
2019-03-01T04:15:07.384Z,41.50
2019-03-01T04:17:36.639Z,43.25
2019-03-01T04:20:07.309Z,42.25
2019-03-01T04:22:37.000Z,43.00
2019-03-01T04:25:06.853Z,44.00
2019-03-01T04:27:36.008Z,39.00
2019-03-01T04:30:08.879Z,37.50
2019-03-01T04:32:42.986Z,43.00
2019-03-01T04:35:13.090Z,44.50
2019-03-01T04:37:43.235Z,41.50
2019-03-01T04:40:12.927Z,41.00
2019-03-01T04:42:43.104Z,44.00
2019-03-01T04:45:20.783Z,44.50
2019-03-01T04:48:28.741Z,43.50
2019-03-01T04:51:00.689Z,44.00
2019-03-01T04:53:48.519Z,44.00
2019-03-01T04:56:30.766Z,45.50
2019-03-01T04:59:00.077Z,37.50
2019-03-01T05:01:29.185Z,40.00
2019-03-01T05:04:02.501Z,48.00
2019-03-01T05:06:31.623Z,45.50
2019-03-01T05:09:00.771Z,44.50
2019-03-01T05:11:29.836Z,46.50
2019-03-01T05:13:59.047Z,47.50
2019-03-01T05:16:28.270Z,44.00
2019-03-01T05:18:57.296Z,49.50
2019-03-01T05:21:26.360Z,42.50
2019-03-01T05:23:55.638Z,40.50
2019-03-01T05:26:24.707Z,49.00
2019-03-01T05:28:53.733Z,45.50
2019-03-01T05:31:26.323Z,39.50
2019-03-01T05:33:57.098Z,42.50
2019-03-01T05:36:27.317Z,44.50
2019-03-01T05:38:56.307Z,43.50
2019-03-01T05:41:25.377Z,43.50
2019-03-01T05:43:54.450Z,44.50
2019-03-01T05:46:23.577Z,41.50
2019-03-01T05:48:56.744Z,43.00
2019-03-01T05:52:40.857Z,45.00
2019-03-01T05:55:16.903Z,43.00
2019-03-01T05:58:23.601Z,44.00
2019-03-01T06:00:55.736Z,46.00
2019-03-01T06:03:52.158Z,43.50
2019-03-01T06:06:26.090Z,44.50
2019-03-01T06:09:28.895Z,42.50
2019-03-01T06:12:45.033Z,43.50
2019-03-01T06:15:27.091Z,43.00
2019-03-01T06:18:17.464Z,43.00
2019-03-01T06:21:27.560Z,42.00
2019-03-01T06:24:23.959Z,44.50
2019-03-01T06:27:32.160Z,39.50
2019-03-01T06:30:37.165Z,44.00
2019-03-01T06:33:29.922Z,44.00
2019-03-01T06:36:11.002Z,42.00
2019-03-01T06:39:35.424Z,40.00
2019-03-01T06:42:12.198Z,44.00
2019-03-01T06:45:08.125Z,44.50
2019-03-01T06:47:46.080Z,46.00
2019-03-01T06:50:47.778Z,42.00
2019-03-01T06:53:16.921Z,40.00
2019-03-01T06:55:48.210Z,42.50
2019-03-01T06:58:31.177Z,43.50
2019-03-01T07:01:15.788Z,43.50
2019-03-01T07:04:11.938Z,46.00
2019-03-01T07:06:41.604Z,40.00
2019-03-01T07:09:12.210Z,43.50
2019-03-01T07:11:41.808Z,44.50
2019-03-01T07:14:19.701Z,43.75
2019-03-01T07:16:49.317Z,33.50
2019-03-01T07:19:18.836Z,45.00
2019-03-01T07:21:52.182Z,43.00
2019-03-01T07:24:28.322Z,42.00
2019-03-01T07:26:57.949Z,43.00
2019-03-01T07:29:29.607Z,42.25
2019-03-01T07:31:59.744Z,44.25
2019-03-01T07:34:38.228Z,39.75
2019-03-01T07:37:08.542Z,42.75
2019-03-01T07:39:38.614Z,38.75
2019-03-01T07:42:08.196Z,42.00
2019-03-01T07:44:38.318Z,38.50
2019-03-01T07:47:13.029Z,41.50
2019-03-01T07:49:46.367Z,35.00
2019-03-01T07:52:16.519Z,39.00
2019-03-01T07:54:45.544Z,39.50
2019-03-01T07:57:15.568Z,34.50
2019-03-01T07:59:44.768Z,30.00
2019-03-01T08:02:13.865Z,32.00
2019-03-01T08:04:42.966Z,29.00
2019-03-01T08:07:11.987Z,29.00
2019-03-01T08:09:44.757Z,31.50
2019-03-01T08:12:12.603Z,27.50
2019-03-01T08:14:41.568Z,23.25
2019-03-01T08:17:10.614Z,22.00
2019-03-01T08:19:39.722Z,17.00
2019-03-01T08:22:08.841Z,10.00
2019-03-01T08:24:38.028Z,9.00
2019-03-01T08:27:09.940Z,10.50
2019-03-01T08:29:40.472Z,10.00
2019-03-01T08:32:09.447Z,11.00
2019-03-01T08:34:38.443Z,8.50
2019-03-01T08:37:08.238Z,6.00
2019-03-01T08:39:39.805Z,8.50
2019-03-01T08:42:09.652Z,8.00
2019-03-01T08:44:38.672Z,9.50
2019-03-01T08:47:07.848Z,10.00
2019-03-01T08:49:36.867Z,7.00
2019-03-01T08:52:05.887Z,7.00
2019-03-01T08:54:36.244Z,6.00
2019-03-01T08:57:05.356Z,9.00
2019-03-01T08:59:35.013Z,6.50
2019-03-01T09:02:04.130Z,5.00
2019-03-01T09:04:37.785Z,6.00
2019-03-01T09:07:04.088Z,5.50
2019-03-01T09:09:33.337Z,7.00
2019-03-01T09:12:02.324Z,7.50
2019-03-01T09:14:31.296Z,4.00
2019-03-01T09:17:00.625Z,5.50
2019-03-01T09:19:29.972Z,4.50
2019-03-01T09:21:59.003Z,6.50
2019-03-01T09:24:29.971Z,7.50
2019-03-01T09:26:58.796Z,9.50
2019-03-01T09:29:28.064Z,6.00
2019-03-01T09:31:57.898Z,8.00
2019-03-01T09:34:28.628Z,6.00
2019-03-01T09:36:59.224Z,6.00
2019-03-01T09:39:28.586Z,6.50
2019-03-01T09:42:03.256Z,5.50
2019-03-01T09:44:28.526Z,7.50
2019-03-01T09:46:58.528Z,7.50
2019-03-01T09:49:28.399Z,6.00
2019-03-01T09:51:57.562Z,6.00
2019-03-01T09:54:33.936Z,6.00
2019-03-01T09:57:03.022Z,5.50
2019-03-01T09:59:32.035Z,6.00
2019-03-01T10:02:01.074Z,5.50
2019-03-01T10:04:30.070Z,8.00
2019-03-01T10:06:59.120Z,4.50
2019-03-01T10:09:28.151Z,7.50
2019-03-01T10:11:57.191Z,5.00
2019-03-01T10:14:26.234Z,6.00
2019-03-01T10:16:56.218Z,6.00
2019-03-01T10:19:25.381Z,9.00
2019-03-01T10:21:54.371Z,6.00
2019-03-01T10:24:23.450Z,7.50
2019-03-01T10:26:52.489Z,8.00
2019-03-01T10:29:21.540Z,6.00
2019-03-01T10:31:51.831Z,8.00
2019-03-01T10:34:20.769Z,7.00
2019-03-01T10:36:51.083Z,4.00
2019-03-01T10:39:20.159Z,6.00
2019-03-01T10:41:50.453Z,5.50
2019-03-01T10:44:19.429Z,4.00
2019-03-01T10:46:48.460Z,6.50
2019-03-01T10:49:17.538Z,7.00
2019-03-01T10:51:46.550Z,6.00
2019-03-01T10:54:15.643Z,7.50
2019-03-01T10:56:44.661Z,8.00
2019-03-01T10:59:13.748Z,6.00
2019-03-01T11:01:42.817Z,7.00
2019-03-01T11:04:11.911Z,7.50
2019-03-01T11:06:40.906Z,9.00
2019-03-01T11:09:09.937Z,6.00
2019-03-01T11:11:41.183Z,6.00
2019-03-01T11:14:09.853Z,10.00
2019-03-01T11:16:38.979Z,10.00
2019-03-01T11:19:08.060Z,8.50
2019-03-01T11:21:37.279Z,9.00
2019-03-01T11:24:06.374Z,8.00
2019-03-01T11:26:35.491Z,8.50
2019-03-01T11:29:04.495Z,8.00
2019-03-01T11:31:33.625Z,8.00
2019-03-01T11:34:02.893Z,8.00
2019-03-01T11:36:31.916Z,10.00
2019-03-01T11:39:01.010Z,9.00
2019-03-01T11:41:31.190Z,6.00
2019-03-01T11:44:00.271Z,7.50
2019-03-01T11:46:29.355Z,8.50
2019-03-01T11:48:58.444Z,7.00
2019-03-01T11:51:27.885Z,10.00
2019-03-01T11:53:57.046Z,6.00
2019-03-01T11:56:26.156Z,10.00
2019-03-01T11:58:55.259Z,6.00
2019-03-01T12:01:24.258Z,4.00
2019-03-01T12:03:53.281Z,6.00
2019-03-01T12:06:22.383Z,4.50
2019-03-01T12:08:51.448Z,4.00
2019-03-01T12:11:21.806Z,6.00
2019-03-01T12:13:50.821Z,4.00
2019-03-01T12:16:20.912Z,4.00
2019-03-01T12:18:49.948Z,4.00
2019-03-01T12:21:18.929Z,4.00
2019-03-01T12:23:47.902Z,5.50
2019-03-01T12:26:17.052Z,6.00
2019-03-01T12:28:46.075Z,4.00
2019-03-01T12:31:15.170Z,4.00
2019-03-01T12:33:44.181Z,4.00
2019-03-01T12:36:13.306Z,4.50
2019-03-01T12:38:42.376Z,4.00
2019-03-01T12:41:11.433Z,2.50
2019-03-01T12:43:40.501Z,5.00
2019-03-01T12:46:09.508Z,2.50
2019-03-01T12:48:38.530Z,2.00
2019-03-01T12:51:08.713Z,4.00
2019-03-01T12:53:37.779Z,2.50
2019-03-01T12:56:06.872Z,2.00
2019-03-01T12:58:35.904Z,4.00
2019-03-01T13:01:05.037Z,2.00
2019-03-01T13:03:34.043Z,6.00
2019-03-01T13:06:03.769Z,4.50
2019-03-01T13:08:33.851Z,1.50
2019-03-01T13:11:02.858Z,2.00
2019-03-01T13:13:34.691Z,3.00
2019-03-01T13:16:02.838Z,2.00
2019-03-01T13:18:33.043Z,0.00
2019-03-01T13:21:02.123Z,1.50
2019-03-01T13:23:31.126Z,0.00
2019-03-01T13:26:03.020Z,0.00
2019-03-01T13:28:31.005Z,0.00
2019-03-01T13:30:59.995Z,1.50
2019-03-01T13:33:29.033Z,1.50
2019-03-01T13:35:59.918Z,2.00
2019-03-01T13:38:30.495Z,2.00
2019-03-01T13:41:02.061Z,4.00
2019-03-01T13:43:30.374Z,2.00
2019-03-01T13:46:00.275Z,2.00
2019-03-01T13:48:30.685Z,2.00
2019-03-01T13:50:59.746Z,2.00
2019-03-01T13:53:30.199Z,2.00
2019-03-01T13:56:00.058Z,2.00
2019-03-01T13:58:31.553Z,0.50
2019-03-01T14:01:00.617Z,0.00
2019-03-01T14:03:29.651Z,2.00
2019-03-01T14:05:58.735Z,2.00
2019-03-01T14:08:29.659Z,3.00
2019-03-01T14:10:58.653Z,5.50
2019-03-01T14:13:29.197Z,2.00
2019-03-01T14:15:58.432Z,2.00
2019-03-01T14:18:27.661Z,15.00
2019-03-01T14:20:58.118Z,2.00
2019-03-01T14:23:27.485Z,2.00
2019-03-01T14:25:56.554Z,2.00
2019-03-01T14:28:25.605Z,2.00
2019-03-01T14:30:54.683Z,4.50
2019-03-01T14:33:23.664Z,2.00
2019-03-01T14:35:52.736Z,2.00
2019-03-01T14:38:21.736Z,3.00
2019-03-01T14:40:51.287Z,2.00
2019-03-01T14:43:23.838Z,2.00
2019-03-01T14:45:51.138Z,2.00
2019-03-01T14:48:20.141Z,2.00
2019-03-01T14:50:49.250Z,3.00
2019-03-01T14:53:18.255Z,3.50
2019-03-01T14:55:50.932Z,4.00
2019-03-01T14:58:27.193Z,2.50
2019-03-01T15:01:10.070Z,2.00
2019-03-01T15:03:40.259Z,4.00
2019-03-01T15:06:10.523Z,2.50
2019-03-01T15:08:44.179Z,3.50
2019-03-01T15:11:14.456Z,3.00
2019-03-01T15:13:43.754Z,5.50
2019-03-01T15:16:16.327Z,4.00
2019-03-01T15:18:45.395Z,4.50
2019-03-01T15:21:14.682Z,6.00
2019-03-01T15:23:44.283Z,9.50
2019-03-01T15:26:14.499Z,4.00
2019-03-01T15:28:55.336Z,4.50
2019-03-01T15:31:22.640Z,8.00
2019-03-01T15:33:51.664Z,6.00
2019-03-01T15:36:20.765Z,6.50
2019-03-01T15:38:49.824Z,4.50
2019-03-01T15:41:18.940Z,4.50
2019-03-01T15:43:49.867Z,5.50
2019-03-01T15:46:18.983Z,6.00
2019-03-01T15:48:47.993Z,7.00
2019-03-01T15:51:17.189Z,8.00
2019-03-01T15:53:46.305Z,10.00
2019-03-01T15:56:15.473Z,11.00
2019-03-01T15:58:46.458Z,9.00
2019-03-01T16:01:15.468Z,7.50
2019-03-01T16:03:44.653Z,10.00
2019-03-01T16:06:17.196Z,9.50
2019-03-01T16:08:48.085Z,10.50
2019-03-01T16:11:17.415Z,12.00
2019-03-01T16:13:49.091Z,11.00
2019-03-01T16:16:17.309Z,9.00
2019-03-01T16:18:47.565Z,9.00
2019-03-01T16:21:16.636Z,8.00
2019-03-01T16:23:45.695Z,8.50
2019-03-01T16:26:14.672Z,8.00
2019-03-01T16:28:43.869Z,9.50
2019-03-01T16:31:12.861Z,11.00
2019-03-01T16:33:41.883Z,11.00
2019-03-01T16:36:23.333Z,19.50
2019-03-01T16:38:54.678Z,8.00
2019-03-01T16:41:26.142Z,11.00
2019-03-01T16:43:55.177Z,8.00
2019-03-01T16:46:24.327Z,7.00
2019-03-01T16:48:55.813Z,8.00
2019-03-01T16:51:24.836Z,9.50
2019-03-01T16:53:53.889Z,8.00
2019-03-01T16:56:22.881Z,8.50
2019-03-01T16:58:51.975Z,10.00
2019-03-01T17:01:21.096Z,10.00
2019-03-01T17:03:52.778Z,8.50
2019-03-01T17:06:21.143Z,9.50
2019-03-01T17:08:50.319Z,9.50
2019-03-01T17:11:19.413Z,6.00
2019-03-01T17:13:48.508Z,6.00
2019-03-01T17:16:20.477Z,6.00
2019-03-01T17:18:48.671Z,7.50
2019-03-01T17:21:17.753Z,8.50
2019-03-01T17:23:46.887Z,8.00
2019-03-01T17:26:16.070Z,8.00
2019-03-01T17:28:45.302Z,8.00
2019-03-01T17:31:14.342Z,6.00
2019-03-01T17:33:45.083Z,6.00
2019-03-01T17:36:16.857Z,7.50
2019-03-01T17:38:51.806Z,7.50
2019-03-01T17:41:21.284Z,7.50
2019-03-01T17:43:50.340Z,7.50
2019-03-01T17:46:19.448Z,8.00
2019-03-01T17:48:54.220Z,12.00
2019-03-01T17:51:22.556Z,21.50
2019-03-01T17:53:51.698Z,13.50
2019-03-01T17:56:21.929Z,8.50
2019-03-01T17:58:51.542Z,7.00
2019-03-01T18:01:20.981Z,14.00
2019-03-01T18:03:52.165Z,8.00
2019-03-01T18:06:21.257Z,6.00
2019-03-01T18:08:50.560Z,8.00
2019-03-01T18:11:19.933Z,8.00
2019-03-01T18:13:49.040Z,8.00
2019-03-01T18:16:18.040Z,7.50
2019-03-01T18:18:49.519Z,8.00
2019-03-01T18:21:17.829Z,7.50
2019-03-01T18:23:46.877Z,6.00
2019-03-01T18:26:16.017Z,8.00
2019-03-01T18:28:45.050Z,6.50
2019-03-01T18:31:14.122Z,9.00
2019-03-01T18:33:43.158Z,8.00
2019-03-01T18:36:12.340Z,12.00
2019-03-01T18:38:43.920Z,9.50
2019-03-01T18:41:13.093Z,9.50
2019-03-01T18:43:42.161Z,10.50
2019-03-01T18:46:11.297Z,8.00
2019-03-01T18:48:40.549Z,8.00
2019-03-01T18:51:11.235Z,10.00
2019-03-01T18:53:40.397Z,8.50
2019-03-01T18:56:09.730Z,7.00
2019-03-01T18:58:38.919Z,6.00
2019-03-01T19:01:10.899Z,8.00
2019-03-01T19:03:41.479Z,8.00
2019-03-01T19:06:12.875Z,9.50
2019-03-01T19:08:42.931Z,10.00
2019-03-01T19:11:12.038Z,11.00
2019-03-01T19:13:41.111Z,8.00
2019-03-01T19:16:10.260Z,10.00
2019-03-01T19:18:39.412Z,16.00
2019-03-01T19:21:08.490Z,14.00
2019-03-01T19:23:37.609Z,15.00
2019-03-01T19:26:06.644Z,15.00
2019-03-01T19:28:35.715Z,18.00
2019-03-01T19:31:05.092Z,15.50
2019-03-01T19:33:34.705Z,18.00
2019-03-01T19:36:06.451Z,14.00
2019-03-01T19:38:35.502Z,16.50
2019-03-01T19:41:04.601Z,18.00
2019-03-01T19:43:33.670Z,18.00
2019-03-01T19:46:02.873Z,14.50
2019-03-01T19:48:34.420Z,16.00
2019-03-01T19:51:02.678Z,16.00
2019-03-01T19:53:31.649Z,16.00
2019-03-01T19:56:00.683Z,18.50
2019-03-01T19:58:29.728Z,16.50
2019-03-01T20:00:58.940Z,17.00
2019-03-01T20:03:28.037Z,15.00
2019-03-01T20:05:57.219Z,13.00
2019-03-01T20:08:26.443Z,10.00
2019-03-01T20:10:56.961Z,10.50
2019-03-01T20:13:26.203Z,9.50
2019-03-01T20:15:55.328Z,9.50
2019-03-01T20:18:24.410Z,11.00
2019-03-01T20:20:53.475Z,11.50
2019-03-01T20:23:22.491Z,9.50
2019-03-01T20:25:51.851Z,12.00
2019-03-01T20:28:21.328Z,12.00
2019-03-01T20:30:57.189Z,11.00
2019-03-01T20:33:27.154Z,10.50
2019-03-01T20:35:56.930Z,6.00
2019-03-01T20:38:26.301Z,8.00
2019-03-01T20:40:55.359Z,9.00
2019-03-01T20:43:24.355Z,8.00
2019-03-01T20:45:53.543Z,12.00
2019-03-01T20:48:25.578Z,12.50
2019-03-01T20:50:53.320Z,18.50
2019-03-01T20:53:23.199Z,16.00
2019-03-01T20:55:52.190Z,12.00
2019-03-01T20:58:22.162Z,10.00
2019-03-01T21:00:51.371Z,10.00
2019-03-01T21:03:20.361Z,10.00
2019-03-01T21:05:49.393Z,10.50
2019-03-01T21:08:18.457Z,9.50
2019-03-01T21:10:50.136Z,9.50
2019-03-01T21:13:18.252Z,10.00
2019-03-01T21:15:47.409Z,9.00
2019-03-01T21:18:16.495Z,11.00
2019-03-01T21:20:45.504Z,13.00
2019-03-01T21:23:15.161Z,11.50
2019-03-01T21:25:44.868Z,10.00
2019-03-01T21:28:13.993Z,10.00
2019-03-01T21:30:43.008Z,10.00
2019-03-01T21:33:12.116Z,9.00
2019-03-01T21:35:41.204Z,9.50
2019-03-01T21:38:10.602Z,8.50
2019-03-01T21:40:40.991Z,9.50
2019-03-01T21:43:10.059Z,8.00
2019-03-01T21:45:39.252Z,8.00
2019-03-01T21:48:08.351Z,8.00
2019-03-01T21:50:38.607Z,8.00
2019-03-01T21:53:08.143Z,5.50
2019-03-01T21:55:37.258Z,6.50
2019-03-01T21:58:06.822Z,6.00
2019-03-01T22:00:37.743Z,6.50
2019-03-01T22:03:06.861Z,6.00
2019-03-01T22:05:35.996Z,7.50
2019-03-01T22:08:05.186Z,10.00
2019-03-01T22:10:35.615Z,12.50
2019-03-01T22:13:05.528Z,12.00
2019-03-01T22:15:34.622Z,10.00
2019-03-01T22:18:03.932Z,10.00
2019-03-01T22:20:33.775Z,6.50
2019-03-01T22:23:03.867Z,10.00
2019-03-01T22:25:34.506Z,8.00
2019-03-01T22:28:07.589Z,9.00
2019-03-01T22:30:37.952Z,8.00
2019-03-01T22:33:08.695Z,8.00
2019-03-01T22:35:40.496Z,7.00
2019-03-01T22:38:08.648Z,6.00
2019-03-01T22:40:37.839Z,12.50
2019-03-01T22:43:08.683Z,10.00
2019-03-01T22:45:37.899Z,6.00
2019-03-01T22:48:08.525Z,6.00
2019-03-01T22:50:39.484Z,6.00
2019-03-01T22:53:08.875Z,6.50
2019-03-01T22:55:37.924Z,6.50
2019-03-01T22:58:07.358Z,8.00
2019-03-01T23:01:15.855Z,8.00
2019-03-01T23:03:55.966Z,7.00
2019-03-01T23:06:25.022Z,6.00
2019-03-01T23:08:58.344Z,8.00
2019-03-01T23:11:28.737Z,7.00
2019-03-01T23:13:58.392Z,8.00
2019-03-01T23:16:27.474Z,8.00
2019-03-01T23:18:57.059Z,8.00
2019-03-01T23:21:26.270Z,9.00
2019-03-01T23:23:55.985Z,7.00
2019-03-01T23:26:26.253Z,7.00
2019-03-01T23:28:55.331Z,7.50
2019-03-01T23:31:25.956Z,8.00
2019-03-01T23:33:55.020Z,8.00
2019-03-01T23:36:28.351Z,8.50
2019-03-01T23:38:56.052Z,11.00
2019-03-01T23:41:25.145Z,10.00
2019-03-01T23:43:54.187Z,10.00
2019-03-01T23:46:28.624Z,12.00
2019-03-01T23:49:06.053Z,13.00
2019-03-01T23:51:28.645Z,10.50
2019-03-01T23:53:57.721Z,10.00
2019-03-01T23:56:29.639Z,9.50
2019-03-01T23:58:57.943Z,10.50
